Grandville, Michigan
Current Conditions -  °F | °C
As of 12:53 PM on Friday 31 Oct 2014 (Local Time) from KGRR Reporting Station
Light Rain Light Rain  
Wind Chill: 29°   Ceiling: 1000
Heat Index: 37°   Visibility: 10mi
Dew Point: 35°   Wind: 13mph
Humidity: 93%   Direction: 360°N
Pressure: 29.99"   Gusts: 25mph
Location:  42.91°N, 85.76°W
Report Text: KGRR 311653Z 36011G22KT 10SM -RA BKN010 OVC015 03/02 A2999 RMK AO2 RAB42SNE42 SLP163 P0005 T00280017
Loading
Personal Weather Stations






























Interactive Weather Map
Tropical Storm Tracking
New forecast layout! Learn more

10-Day Weather Forecast

Advertisements
Track Severe Weather on mobile